Time;durP1;ratioP1;P1;durP2;ratioP2;P2;SDS_P1;SDS_P2;PMS_P1;PMS_P2;Temp;Humidity;BMP_temperature;BMP_pressure;BME280_temperature;BME280_humidity;BME280_pressure;Samples;Min_cycle;Max_cycle;Signal;HPM_P1;HPM_P2
2022/10/20 00:00:55;;;;;;;11.98;5.43;;;10.10;99.90;;;;;;5097588;28;20044;-75
2022/10/20 00:03:22;;;;;;;14.18;6.07;;;10.00;99.90;;;;;;5079368;28;20119;-75
2022/10/20 00:05:47;;;;;;;12.73;5.47;;;9.90;99.90;;;;;;5097556;28;20035;-75
2022/10/20 00:08:13;;;;;;;16.63;6.30;;;9.90;99.90;;;;;;5097119;28;20384;-75
2022/10/20 00:10:39;;;;;;;14.20;6.32;;;9.90;99.90;;;;;;5079203;28;20123;-75
2022/10/20 00:13:04;;;;;;;8.90;5.43;;;9.90;99.90;;;;;;5097226;28;20036;-76
2022/10/20 00:15:30;;;;;;;18.35;6.13;;;9.80;99.90;;;;;;5097317;28;20141;-76
2022/10/20 00:17:56;;;;;;;17.13;6.43;;;9.90;99.90;;;;;;5097312;28;20410;-76
2022/10/20 00:20:21;;;;;;;20.63;6.45;;;9.90;99.90;;;;;;5097071;28;20040;-76
2022/10/20 00:22:47;;;;;;;15.57;5.90;;;9.90;99.90;;;;;;5096988;28;20060;-75
2022/10/20 00:25:13;;;;;;;21.10;6.50;;;10.00;99.90;;;;;;5097254;28;20142;-75
2022/10/20 00:27:38;;;;;;;13.00;6.00;;;9.90;99.80;;;;;;5097209;28;20476;-75
2022/10/20 00:30:04;;;;;;;12.57;6.05;;;9.80;99.90;;;;;;5097205;28;20089;-76
2022/10/20 00:32:30;;;;;;;13.25;5.47;;;9.90;99.90;;;;;;5097106;28;20067;-76
2022/10/20 00:34:56;;;;;;;12.93;5.40;;;9.80;99.90;;;;;;5079027;28;20071;-76
2022/10/20 00:37:22;;;;;;;20.42;5.93;;;10.00;99.90;;;;;;5078489;28;20036;-76
2022/10/20 00:39:48;;;;;;;13.73;6.32;;;10.00;99.80;;;;;;5097022;28;20071;-76
2022/10/20 00:42:16;;;;;;;11.27;5.72;;;10.00;99.80;;;;;;5096717;28;20068;-75
2022/10/20 00:44:51;;;;;;;17.42;6.40;;;9.90;99.80;;;;;;5096944;28;20043;-76
2022/10/20 00:47:41;;;;;;;15.63;5.80;;;9.80;99.90;;;;;;5096333;28;20040;-75
2022/10/20 00:50:36;;;;;;;15.30;6.18;;;9.80;99.90;;;;;;5096911;28;20048;-76
2022/10/20 00:53:03;;;;;;;12.13;6.15;;;9.80;99.90;;;;;;5096198;28;20055;-75
2022/10/20 00:55:32;;;;;;;12.30;5.93;;;9.90;99.80;;;;;;5096776;28;20043;-76
2022/10/20 00:57:59;;;;;;;16.10;6.15;;;9.70;99.90;;;;;;5096852;28;20036;-75
2022/10/20 01:00:26;;;;;;;12.75;6.25;;;9.60;99.90;;;;;;5078622;28;20044;-75
2022/10/20 01:02:55;;;;;;;12.90;5.93;;;9.60;99.90;;;;;;5079046;28;20037;-75
2022/10/20 01:05:20;;;;;;;12.88;5.70;;;9.50;99.90;;;;;;5078594;28;20050;-75
2022/10/20 01:07:46;;;;;;;9.68;6.20;;;9.50;99.90;;;;;;5096068;28;20044;-75
2022/10/20 01:10:14;;;;;;;12.85;6.10;;;9.50;99.90;;;;;;5096718;28;20097;-75
2022/10/20 01:13:07;;;;;;;12.65;5.70;;;9.50;99.90;;;;;;5096684;28;20106;-75
2022/10/20 01:15:57;;;;;;;13.88;5.90;;;9.40;99.90;;;;;;5078470;28;20048;-76
2022/10/20 01:18:23;;;;;;;13.25;5.82;;;9.50;99.90;;;;;;5096338;28;20475;-77
2022/10/20 01:21:15;;;;;;;15.40;6.28;;;9.50;99.90;;;;;;5096630;28;20035;-76
2022/10/20 01:23:43;;;;;;;15.02;5.47;;;9.60;99.90;;;;;;5078297;28;20460;-76
2022/10/20 01:26:42;;;;;;;13.00;5.57;;;9.60;99.90;;;;;;5096357;28;20336;-76
2022/10/20 01:29:19;;;;;;;16.83;6.30;;;9.60;99.90;;;;;;5096252;28;20453;-75
2022/10/20 01:32:00;;;;;;;11.60;5.85;;;9.50;99.90;;;;;;5078416;28;20073;-75
2022/10/20 01:34:36;;;;;;;10.07;5.65;;;9.20;99.90;;;;;;5096501;28;20040;-76
2022/10/20 01:37:12;;;;;;;16.80;6.70;;;9.30;99.90;;;;;;5077925;28;20040;-76
2022/10/20 01:39:58;;;;;;;;;;;9.30;99.90;;;;;;5095714;28;20433;-76
2022/10/20 01:42:28;;;;;;;13.02;5.32;;;9.40;99.90;;;;;;5096411;28;19916;-76
2022/10/20 01:44:59;;;;;;;14.27;6.15;;;9.30;99.90;;;;;;5096448;28;20040;-75
2022/10/20 01:47:27;;;;;;;14.27;5.85;;;9.30;99.90;;;;;;5078512;28;20328;-76
2022/10/20 01:49:55;;;;;;;17.75;6.15;;;9.30;99.90;;;;;;5096352;28;20048;-76
2022/10/20 01:52:22;;;;;;;18.17;6.60;;;9.30;99.90;;;;;;5096278;28;20086;-76
2022/10/20 01:54:48;;;;;;;12.55;5.63;;;9.30;99.90;;;;;;5078192;28;20048;-75
2022/10/20 01:57:35;;;;;;;19.27;6.60;;;9.20;99.90;;;;;;5096240;28;20087;-75
2022/10/20 02:00:13;;;;;;;16.92;6.60;;;9.30;99.90;;;;;;5081620;28;20051;-76
2022/10/20 02:02:57;;;;;;;10.88;5.75;;;9.30;99.90;;;;;;5099884;28;20115;-75
2022/10/20 02:05:41;;;;;;;11.88;5.43;;;9.20;99.90;;;;;;5064890;28;20455;-76
2022/10/20 02:08:17;;;;;;;16.00;6.03;;;9.10;99.90;;;;;;5099387;28;20036;-75
2022/10/20 02:10:47;;;;;;;;;;;9.10;99.90;;;;;;5100123;28;20044;-75
2022/10/20 02:13:13;;;;;;;18.48;6.35;;;9.00;99.90;;;;;;5099924;28;20003;-76
2022/10/20 02:15:45;;;;;;;11.57;5.53;;;9.00;99.90;;;;;;5099338;28;20356;-76
2022/10/20 02:18:15;;;;;;;17.05;6.90;;;8.90;99.90;;;;;;5099654;28;20107;-76
2022/10/20 02:20:44;;;;;;;11.93;5.43;;;9.00;99.90;;;;;;5064676;28;20051;-76
2022/10/20 02:23:10;;;;;;;11.43;5.50;;;9.10;99.90;;;;;;5099016;28;20348;-76
2022/10/20 02:25:38;;;;;;;11.63;6.13;;;9.20;99.90;;;;;;5098216;28;20482;-75
2022/10/20 02:28:07;;;;;;;14.70;6.10;;;9.20;99.90;;;;;;5081481;28;20039;-75
2022/10/20 02:30:34;;;;;;;15.15;6.72;;;9.10;99.90;;;;;;5081416;28;20087;-76
2022/10/20 02:33:00;;;;;;;14.20;7.00;;;9.10;99.90;;;;;;5099314;28;20040;-76
2022/10/20 02:35:30;;;;;;;12.70;6.72;;;9.10;99.90;;;;;;5097954;28;20352;-76
2022/10/20 02:37:56;;;;;;;13.73;5.78;;;9.10;99.90;;;;;;5064164;28;20040;-76
2022/10/20 02:40:22;;;;;;;16.52;6.47;;;9.00;99.90;;;;;;5098851;28;20044;-76
2022/10/20 02:42:48;;;;;;;17.95;6.20;;;9.00;99.90;;;;;;5099139;28;20070;-76
2022/10/20 02:45:14;;;;;;;14.60;7.15;;;8.80;99.90;;;;;;5080857;28;20039;-77
2022/10/20 02:47:40;;;;;;;14.20;7.38;;;8.90;99.90;;;;;;5064135;28;20089;-76
2022/10/20 02:50:07;;;;;;;15.38;6.93;;;8.90;99.90;;;;;;5080819;28;20035;-75
2022/10/20 02:52:33;;;;;;;12.85;6.20;;;8.90;99.90;;;;;;5098910;28;20393;-75
2022/10/20 02:54:59;;;;;;;12.55;6.80;;;8.90;99.90;;;;;;5080667;28;20097;-75
2022/10/20 02:57:25;;;;;;;14.85;6.60;;;8.90;99.90;;;;;;5097789;28;20394;-75
2022/10/20 02:59:51;;;;;;;14.52;6.72;;;8.90;99.90;;;;;;5080580;28;20040;-75
2022/10/20 03:02:17;;;;;;;15.18;6.63;;;8.90;99.90;;;;;;5098412;28;20040;-76
2022/10/20 03:04:42;;;;;;;22.83;7.80;;;9.00;99.90;;;;;;5080716;28;20044;-75
2022/10/20 03:07:09;;;;;;;19.70;7.35;;;8.90;99.90;;;;;;5080044;28;20032;-78
2022/10/20 03:09:34;;;;;;;14.30;7.57;;;9.00;99.90;;;;;;5080469;28;20113;-75
2022/10/20 03:12:00;;;;;;;11.55;6.88;;;9.00;99.90;;;;;;5080277;28;20429;-75
2022/10/20 03:14:26;;;;;;;11.80;6.63;;;9.00;99.90;;;;;;5098512;28;20118;-75
2022/10/20 03:16:52;;;;;;;19.00;8.02;;;8.90;99.90;;;;;;5080248;28;20419;-75
2022/10/20 03:19:17;;;;;;;14.00;6.65;;;9.00;99.90;;;;;;5098094;28;20040;-76
2022/10/20 03:21:43;;;;;;;18.75;6.93;;;8.90;99.90;;;;;;5080114;28;20040;-75
2022/10/20 03:24:09;;;;;;;13.00;7.53;;;9.00;99.90;;;;;;5096918;28;20069;-76
2022/10/20 03:26:34;;;;;;;16.33;7.75;;;8.90;99.90;;;;;;5097280;28;20341;-75
2022/10/20 03:29:00;;;;;;;20.05;8.82;;;8.80;99.90;;;;;;5097243;28;20032;-76
2022/10/20 03:31:25;;;;;;;23.58;8.20;;;8.70;99.90;;;;;;5097836;28;20044;-75
2022/10/20 03:33:51;;;;;;;18.25;7.97;;;8.50;99.90;;;;;;5096919;28;20032;-75
2022/10/20 03:36:17;;;;;;;14.77;7.57;;;8.60;99.90;;;;;;5097041;28;20040;-75
2022/10/20 03:38:42;;;;;;;15.18;7.80;;;8.60;99.90;;;;;;5097651;28;20036;-75
2022/10/20 03:41:08;;;;;;;18.10;8.52;;;8.50;99.90;;;;;;5096708;28;20032;-75
2022/10/20 03:43:34;;;;;;;17.38;8.18;;;8.60;99.90;;;;;;5087988;28;20031;-75
2022/10/20 03:46:06;;;;;;;14.85;7.90;;;8.60;99.90;;;;;;5081086;28;20048;-75
2022/10/20 03:48:32;;;;;;;15.15;8.50;;;8.60;99.90;;;;;;5100066;28;20047;-75
2022/10/20 03:51:00;;;;;;;21.77;9.30;;;8.60;99.90;;;;;;5118200;28;20074;-76
2022/10/20 03:53:25;;;;;;;21.55;9.93;;;8.50;99.90;;;;;;5099797;28;20481;-75
2022/10/20 03:55:51;;;;;;;20.00;8.73;;;8.40;99.90;;;;;;5099748;28;20043;-75
2022/10/20 03:58:17;;;;;;;12.82;8.43;;;8.40;99.90;;;;;;5118083;28;20107;-75
2022/10/20 04:00:43;;;;;;;25.75;9.98;;;8.40;99.90;;;;;;5118015;28;20036;-75
2022/10/20 04:03:08;;;;;;;19.77;9.38;;;8.50;99.90;;;;;;5100097;28;20070;-75
2022/10/20 04:05:34;;;;;;;20.90;10.50;;;8.50;99.90;;;;;;5099972;28;20047;-75
2022/10/20 04:08:00;;;;;;;15.23;9.02;;;8.40;99.90;;;;;;5117533;28;20320;-75
2022/10/20 04:10:25;;;;;;;14.90;9.00;;;8.40;99.90;;;;;;5117547;28;20469;-75
2022/10/20 04:12:51;;;;;;;14.77;8.77;;;8.40;99.90;;;;;;5117461;28;20042;-76
2022/10/20 04:15:17;;;;;;;16.00;9.38;;;8.40;99.90;;;;;;5099427;28;20077;-76
2022/10/20 04:17:43;;;;;;;21.55;10.65;;;8.50;99.90;;;;;;5099548;28;20074;-76
2022/10/20 04:20:10;;;;;;;19.70;9.18;;;8.40;99.90;;;;;;5100010;28;20382;-75
2022/10/20 04:22:36;;;;;;;20.88;10.95;;;8.40;99.90;;;;;;5116769;28;20073;-76
2022/10/20 04:25:02;;;;;;;15.65;9.10;;;8.40;99.90;;;;;;5099481;28;20048;-75
2022/10/20 04:27:28;;;;;;;23.42;10.85;;;8.40;99.90;;;;;;5117423;28;20072;-75
2022/10/20 04:29:53;;;;;;;22.27;11.35;;;8.40;99.90;;;;;;5098876;28;20364;-75
2022/10/20 04:32:19;;;;;;;18.27;10.38;;;8.40;99.90;;;;;;5117033;28;20050;-75
2022/10/20 04:34:45;;;;;;;17.85;10.27;;;8.50;99.90;;;;;;5099253;28;20039;-75
2022/10/20 04:37:11;;;;;;;21.52;11.80;;;8.60;99.90;;;;;;5098697;28;20039;-76
2022/10/20 04:39:36;;;;;;;20.27;11.43;;;8.60;99.90;;;;;;5099390;28;20049;-76
2022/10/20 04:42:02;;;;;;;22.15;10.98;;;8.70;99.90;;;;;;5117870;28;20047;-76
2022/10/20 04:44:27;;;;;;;22.70;11.32;;;8.60;99.90;;;;;;5117033;28;20048;-75
2022/10/20 04:46:54;;;;;;;26.05;11.10;;;8.40;99.90;;;;;;5099315;28;20047;-75
2022/10/20 04:49:20;;;;;;;22.00;12.25;;;8.40;99.90;;;;;;5099135;28;20042;-76
2022/10/20 04:51:45;;;;;;;21.58;11.77;;;8.30;99.90;;;;;;5117278;28;20032;-75
2022/10/20 04:54:11;;;;;;;24.02;12.57;;;8.40;99.90;;;;;;5117288;28;20370;-75
2022/10/20 04:56:37;;;;;;;22.90;11.85;;;8.40;99.90;;;;;;5099262;28;20051;-75
2022/10/20 04:59:03;;;;;;;18.63;11.38;;;8.40;99.90;;;;;;5116885;28;20039;-75
2022/10/20 05:01:30;;;;;;;22.90;12.63;;;8.30;99.90;;;;;;5116906;28;20036;-76
2022/10/20 05:03:56;;;;;;;19.95;11.75;;;8.20;99.90;;;;;;5098866;28;20088;-75
2022/10/20 05:06:23;;;;;;;19.55;11.27;;;8.30;99.90;;;;;;5098850;28;20074;-76
2022/10/20 05:08:52;;;;;;;18.55;10.75;;;8.40;99.90;;;;;;5098452;28;20055;-75
2022/10/20 05:11:20;;;;;;;22.42;12.25;;;8.40;99.90;;;;;;5116799;28;20043;-75
2022/10/20 05:13:46;;;;;;;22.13;11.10;;;8.30;99.90;;;;;;5098852;28;20032;-76
2022/10/20 05:16:12;;;;;;;21.30;11.95;;;8.30;99.90;;;;;;5116976;28;20043;-76
2022/10/20 05:18:39;;;;;;;19.80;11.18;;;8.30;99.90;;;;;;5116998;28;20437;-76
2022/10/20 05:21:11;;;;;;;20.88;11.38;;;8.20;99.90;;;;;;5099044;28;20074;-76
2022/10/20 05:23:38;;;;;;;26.00;13.00;;;8.30;99.90;;;;;;5116636;28;20058;-75
2022/10/20 05:26:06;;;;;;;24.15;12.52;;;8.30;99.90;;;;;;5116933;28;20044;-75
2022/10/20 05:28:32;;;;;;;21.95;12.18;;;8.20;99.90;;;;;;5098645;28;20040;-75
2022/10/20 05:31:07;;;;;;;34.97;13.93;;;8.40;99.90;;;;;;5116861;28;20051;-75
2022/10/20 05:33:34;;;;;;;19.70;12.00;;;8.50;99.90;;;;;;5101860;28;20432;-75
2022/10/20 05:36:05;;;;;;;20.25;11.52;;;8.40;99.90;;;;;;5102460;28;20040;-75
2022/10/20 05:38:30;;;;;;;23.77;12.75;;;8.50;99.90;;;;;;5120484;28;20044;-75
2022/10/20 05:41:10;;;;;;;22.23;12.60;;;8.50;99.90;;;;;;5120763;28;20111;-76
2022/10/20 05:43:35;;;;;;;25.42;13.35;;;8.50;99.90;;;;;;5120474;28;20039;-75
2022/10/20 05:46:01;;;;;;;25.70;14.23;;;8.40;99.90;;;;;;5120675;28;20035;-75
2022/10/20 05:48:27;;;;;;;20.27;12.05;;;8.30;99.90;;;;;;5102308;28;20062;-75
2022/10/20 05:50:53;;;;;;;23.83;13.40;;;8.40;99.90;;;;;;5120540;28;20044;-75
2022/10/20 05:53:18;;;;;;;21.05;12.52;;;8.30;99.90;;;;;;5120512;28;20478;-75
2022/10/20 05:55:44;;;;;;;26.77;15.43;;;8.20;99.90;;;;;;5102044;28;20040;-75
2022/10/20 05:58:10;;;;;;;21.48;13.15;;;8.10;99.90;;;;;;5120438;28;20036;-75
2022/10/20 06:00:40;;;;;;;23.63;13.98;;;8.10;99.90;;;;;;5120113;28;20071;-75
2022/10/20 06:03:09;;;;;;;26.85;14.02;;;8.20;99.90;;;;;;5102051;28;20071;-75
2022/10/20 06:05:35;;;;;;;21.08;12.80;;;8.20;99.90;;;;;;5120288;28;20067;-75
2022/10/20 06:08:00;;;;;;;27.38;14.82;;;8.20;99.90;;;;;;5119910;28;20148;-75
2022/10/20 06:10:26;;;;;;;25.13;13.90;;;8.20;99.90;;;;;;5120157;28;20428;-76
2022/10/20 06:12:52;;;;;;;25.40;14.30;;;8.10;99.90;;;;;;5101808;28;20456;-75
2022/10/20 06:15:18;;;;;;;27.77;14.90;;;8.10;99.90;;;;;;5119765;28;20040;-75
2022/10/20 06:17:45;;;;;;;23.88;14.10;;;8.00;99.90;;;;;;5102012;28;20039;-76
2022/10/20 06:20:11;;;;;;;26.30;15.00;;;8.00;99.90;;;;;;5101695;28;20100;-75
2022/10/20 06:22:37;;;;;;;29.23;15.65;;;8.00;99.90;;;;;;5119725;28;20044;-75
2022/10/20 06:25:03;;;;;;;27.02;13.50;;;8.10;99.90;;;;;;5101850;28;20051;-75
2022/10/20 06:27:28;;;;;;;27.08;15.05;;;8.10;99.90;;;;;;5119819;28;20419;-75
2022/10/20 06:29:54;;;;;;;24.77;14.20;;;8.00;99.90;;;;;;5101668;28;20081;-75
2022/10/20 06:32:20;;;;;;;24.80;13.60;;;8.00;99.90;;;;;;5101762;28;20044;-75
2022/10/20 06:34:45;;;;;;;26.63;15.30;;;8.00;99.90;;;;;;5101485;28;20050;-75
2022/10/20 06:37:11;;;;;;;26.85;14.30;;;8.00;99.90;;;;;;5119219;28;20071;-76
2022/10/20 06:39:37;;;;;;;25.90;14.70;;;8.00;99.90;;;;;;5101646;28;20306;-76
2022/10/20 06:42:04;;;;;;;29.70;15.02;;;8.20;99.90;;;;;;5119547;28;20119;-76
2022/10/20 06:44:30;;;;;;;24.08;13.68;;;8.20;99.90;;;;;;5118965;28;20325;-75
2022/10/20 06:46:55;;;;;;;27.38;14.23;;;8.10;99.90;;;;;;5101382;28;20044;-75
2022/10/20 06:49:21;;;;;;;32.97;14.32;;;8.10;99.90;;;;;;5119425;28;20324;-75
2022/10/20 06:51:47;;;;;;;28.73;15.43;;;8.00;99.90;;;;;;5101351;28;20057;-75
2022/10/20 06:54:13;;;;;;;24.90;13.98;;;8.10;99.90;;;;;;5100982;28;20325;-75
2022/10/20 06:56:39;;;;;;;27.65;15.63;;;8.00;99.90;;;;;;5100899;28;20074;-73
2022/10/20 06:59:04;;;;;;;22.38;13.98;;;8.10;99.90;;;;;;5118971;28;20097;-73
2022/10/20 07:01:33;;;;;;;27.30;13.48;;;8.10;99.90;;;;;;5119213;28;20039;-73
2022/10/20 07:04:04;;;;;;;24.80;14.93;;;8.20;99.90;;;;;;5100832;28;20039;-74
2022/10/20 07:06:33;;;;;;;29.15;14.98;;;8.30;99.90;;;;;;5119124;28;20047;-74
2022/10/20 07:09:00;;;;;;;25.85;14.02;;;8.30;99.90;;;;;;5118372;28;20425;-74
2022/10/20 07:11:27;;;;;;;30.88;15.40;;;8.20;99.90;;;;;;5118965;28;20047;-76
2022/10/20 07:13:54;;;;;;;29.95;14.55;;;8.30;99.90;;;;;;5101456;28;20055;-74
2022/10/20 07:16:22;;;;;;;28.30;14.52;;;8.30;99.90;;;;;;5101795;28;20125;-75
2022/10/20 07:18:48;;;;;;;27.73;14.43;;;8.40;99.90;;;;;;5100799;28;20123;-75
2022/10/20 07:21:17;;;;;;;26.77;14.75;;;8.40;99.90;;;;;;5118767;28;20065;-74
2022/10/20 07:23:44;;;;;;;26.10;13.70;;;8.30;99.90;;;;;;5118398;28;20048;-73
2022/10/20 07:26:39;;;;;;;32.10;15.50;;;8.50;99.90;;;;;;5118742;28;20076;-73
2022/10/20 07:29:05;;;;;;;23.88;14.23;;;8.50;99.90;;;;;;5118673;28;20051;-73
2022/10/20 07:31:35;;;;;;;22.98;13.48;;;8.60;99.90;;;;;;5100628;28;20043;-73
2022/10/20 07:34:02;;;;;;;24.65;13.00;;;8.70;99.90;;;;;;5118569;28;20051;-73
2022/10/20 07:36:29;;;;;;;21.15;13.43;;;8.80;99.90;;;;;;5118418;28;20040;-73
2022/10/20 07:38:57;;;;;;;24.35;14.35;;;8.80;99.90;;;;;;5118068;28;20039;-73
2022/10/20 07:41:25;;;;;;;25.50;14.45;;;8.80;99.90;;;;;;5118400;28;20073;-73
2022/10/20 07:43:52;;;;;;;26.08;15.30;;;8.80;99.90;;;;;;5118301;28;20035;-75
2022/10/20 07:46:17;;;;;;;23.73;13.85;;;8.80;99.90;;;;;;5100023;28;20051;-75
2022/10/20 07:48:43;;;;;;;22.95;13.77;;;8.90;99.90;;;;;;5118240;28;20044;-76
2022/10/20 07:51:23;;;;;;;24.83;14.20;;;8.90;99.90;;;;;;5118265;28;20447;-75
2022/10/20 07:53:50;;;;;;;21.15;12.80;;;9.00;99.90;;;;;;5100026;28;20058;-75
2022/10/20 07:56:16;;;;;;;20.77;13.88;;;8.90;99.90;;;;;;5117121;28;20090;-74
2022/10/20 07:58:42;;;;;;;28.17;13.93;;;8.80;99.90;;;;;;5118048;28;20035;-75
2022/10/20 08:01:09;;;;;;;23.45;14.35;;;8.90;99.90;;;;;;5082757;28;20122;-75
2022/10/20 08:03:35;;;;;;;24.45;13.20;;;8.90;99.90;;;;;;5117986;28;20071;-75
2022/10/20 08:06:02;;;;;;;27.15;15.23;;;9.00;99.90;;;;;;5099641;28;20044;-76
2022/10/20 08:08:28;;;;;;;23.90;14.00;;;9.10;99.90;;;;;;5117577;28;20071;-75
2022/10/20 08:10:53;;;;;;;24.15;13.65;;;9.10;99.90;;;;;;5117821;28;20070;-75
2022/10/20 08:13:19;;;;;;;21.35;13.00;;;9.20;99.90;;;;;;5117515;28;20067;-75
2022/10/20 08:15:45;;;;;;;19.23;12.93;;;9.20;99.90;;;;;;5117644;28;20085;-75
2022/10/20 08:18:10;;;;;;;19.75;12.43;;;9.30;99.90;;;;;;5117750;28;20032;-75
2022/10/20 08:20:36;;;;;;;20.75;12.40;;;9.60;99.90;;;;;;5099658;28;20031;-75
2022/10/20 08:23:02;;;;;;;23.23;13.32;;;9.80;99.90;;;;;;5117393;28;20047;-75
2022/10/20 08:25:28;;;;;;;24.40;12.88;;;9.70;99.90;;;;;;5099662;28;20421;-75
2022/10/20 08:27:53;;;;;;;19.83;11.63;;;9.80;99.90;;;;;;5117533;28;20071;-73
2022/10/20 08:30:19;;;;;;;19.15;12.27;;;9.70;99.90;;;;;;5117580;28;20047;-74
2022/10/20 08:32:45;;;;;;;22.55;12.27;;;9.80;99.90;;;;;;5117185;28;20047;-74
2022/10/20 08:35:10;;;;;;;18.00;11.48;;;9.70;99.90;;;;;;5117475;28;20040;-75
2022/10/20 08:37:36;;;;;;;20.30;11.98;;;9.70;99.90;;;;;;5117297;28;20047;-74
2022/10/20 08:40:05;;;;;;;32.40;11.50;;;9.60;99.90;;;;;;5117420;28;20040;-74
2022/10/20 08:42:41;;;;;;;18.83;11.93;;;9.60;99.90;;;;;;5117123;28;20032;-74
2022/10/20 08:45:13;;;;;;;21.48;11.77;;;9.80;99.90;;;;;;5117134;28;20038;-74
2022/10/20 08:47:38;;;;;;;20.88;11.70;;;9.80;99.90;;;;;;5117366;28;20054;-74
2022/10/20 08:50:08;;;;;;;18.52;11.60;;;9.90;99.90;;;;;;5099033;28;20428;-74
2022/10/20 08:52:34;;;;;;;15.90;10.18;;;9.90;99.90;;;;;;5117282;28;20031;-74
2022/10/20 08:55:03;;;;;;;18.27;10.38;;;9.90;99.90;;;;;;5117257;28;20031;-74
2022/10/20 08:57:31;;;;;;;19.80;10.15;;;10.00;99.90;;;;;;5098867;28;20101;-74
2022/10/20 09:00:17;;;;;;;20.60;12.20;;;10.10;99.90;;;;;;5116833;28;20039;-75
2022/10/20 09:02:44;;;;;;;16.10;10.00;;;10.20;99.90;;;;;;5117249;28;20118;-77
2022/10/20 09:05:12;;;;;;;17.33;10.38;;;10.20;99.90;;;;;;5099115;28;20341;-76
2022/10/20 09:07:38;;;;;;;17.80;9.50;;;10.40;99.90;;;;;;5100176;28;20092;-73
2022/10/20 09:10:23;;;;;;;17.55;9.98;;;10.50;99.90;;;;;;5121026;28;20340;-74
2022/10/20 09:12:50;;;;;;;19.27;10.15;;;10.40;99.90;;;;;;5103210;28;20332;-73
2022/10/20 09:15:18;;;;;;;17.60;9.23;;;10.50;99.90;;;;;;5102894;28;20044;-74
2022/10/20 09:17:52;;;;;;;16.83;10.32;;;10.50;99.90;;;;;;5102767;28;20435;-73
2022/10/20 09:20:32;;;;;;;15.23;9.38;;;10.50;99.90;;;;;;5121236;28;20031;-73
2022/10/20 09:22:58;;;;;;;16.20;9.65;;;10.60;99.90;;;;;;5102575;28;20454;-73
2022/10/20 09:25:26;;;;;;;16.35;9.65;;;10.70;99.90;;;;;;5121107;28;20114;-73
2022/10/20 09:27:52;;;;;;;13.75;8.70;;;10.70;99.90;;;;;;5121050;28;20374;-73
2022/10/20 09:30:32;;;;;;;13.48;8.80;;;11.00;99.90;;;;;;5120666;28;20031;-73
2022/10/20 09:32:59;;;;;;;12.80;8.52;;;11.00;99.90;;;;;;5120612;28;20108;-73
2022/10/20 09:35:34;;;;;;;16.05;8.18;;;11.10;99.80;;;;;;5120907;28;20032;-73
2022/10/20 09:38:09;;;;;;;16.63;9.02;;;11.40;99.90;;;;;;5120620;28;20115;-79
2022/10/20 09:40:42;;;;;;;16.90;9.25;;;11.20;99.40;;;;;;5120567;28;20044;-73
2022/10/20 09:43:13;;;;;;;14.18;8.73;;;11.00;99.50;;;;;;5103240;28;20035;-73
2022/10/20 09:45:52;;;;;;;13.07;8.52;;;11.20;99.90;;;;;;5120698;28;20328;-73
2022/10/20 09:48:31;;;;;;;14.27;8.88;;;11.20;99.70;;;;;;5120691;28;20039;-76
2022/10/20 09:50:59;;;;;;;15.52;8.93;;;11.00;99.80;;;;;;5120600;28;20050;-78
2022/10/20 09:53:32;;;;;;;14.00;9.30;;;11.20;99.90;;;;;;5120220;28;20043;-73
2022/10/20 09:55:58;;;;;;;14.98;8.73;;;11.30;99.70;;;;;;5120616;28;20050;-91
2022/10/20 09:58:36;;;;;;;14.60;8.57;;;11.40;99.60;;;;;;5102347;28;20129;-73
2022/10/20 10:01:10;;;;;;;18.40;9.57;;;11.40;99.70;;;;;;5120448;28;20068;-76
2022/10/20 10:03:46;;;;;;;15.27;8.05;;;11.40;99.70;;;;;;5120366;28;20114;-74
2022/10/20 10:06:30;;;;;;;16.67;8.60;;;11.50;99.80;;;;;;5120325;28;20043;-75
2022/10/20 10:08:57;;;;;;;13.73;8.45;;;11.80;99.70;;;;;;5119845;28;20106;-74
2022/10/20 10:11:33;;;;;;;13.00;8.88;;;11.90;99.50;;;;;;5121427;28;20043;-75
2022/10/20 10:14:00;;;;;;;17.70;7.32;;;11.80;99.30;;;;;;5120192;28;20043;-86
2022/10/20 10:16:26;;;;;;;15.25;7.43;;;11.70;99.60;;;;;;5068705;28;20043;-90
2022/10/20 10:19:00;;;;;;;15.85;7.95;;;11.40;99.40;;;;;;5084256;28;20119;-73
2022/10/20 10:21:27;;;;;;;10.90;7.88;;;11.40;99.80;;;;;;5101958;28;20075;-74
2022/10/20 10:23:56;;;;;;;16.30;8.80;;;11.60;99.90;;;;;;5119577;28;20073;-72
2022/10/20 10:26:38;;;;;;;17.02;7.70;;;11.80;99.70;;;;;;5119617;28;20455;-73
2022/10/20 10:29:04;;;;;;;13.70;8.55;;;11.90;99.60;;;;;;5119832;28;20043;-73
2022/10/20 10:31:32;;;;;;;13.32;8.05;;;12.00;99.60;;;;;;5119786;28;20042;-86
2022/10/20 10:34:17;;;;;;;11.45;7.60;;;12.20;99.50;;;;;;5101478;28;20047;-71
2022/10/20 10:36:43;;;;;;;15.90;8.45;;;12.20;99.30;;;;;;5119240;28;20492;-73
2022/10/20 10:39:14;;;;;;;12.52;8.02;;;12.20;99.10;;;;;;5119182;28;20124;-73
2022/10/20 10:42:18;;;;;;;14.15;8.15;;;12.20;99.00;;;;;;5119269;28;20043;-72
2022/10/20 10:45:15;;;;;;;10.05;7.13;;;12.30;99.30;;;;;;5118483;28;20089;-74
2022/10/20 10:48:05;;;;;;;14.52;7.40;;;12.60;99.60;;;;;;5084273;28;20039;-74
2022/10/20 10:50:42;;;;;;;14.02;6.90;;;12.70;99.20;;;;;;5119439;28;20062;-74
2022/10/20 10:53:20;;;;;;;12.00;7.50;;;13.00;98.70;;;;;;5101464;28;20044;-74
2022/10/20 10:55:49;;;;;;;14.07;8.55;;;13.20;98.50;;;;;;5119207;28;20043;-75
2022/10/20 10:58:32;;;;;;;13.25;8.00;;;13.40;98.40;;;;;;5118954;28;20097;-75
2022/10/20 11:01:04;;;;;;;11.35;7.43;;;13.50;98.30;;;;;;5119232;28;20039;-75
2022/10/20 11:04:11;;;;;;;10.95;6.93;;;13.80;98.40;;;;;;5118896;28;20040;-75
2022/10/20 11:06:43;;;;;;;14.52;7.35;;;13.90;98.30;;;;;;5119188;28;20042;-73
2022/10/20 11:09:40;;;;;;;12.85;7.15;;;14.00;98.20;;;;;;5118814;28;20043;-87
2022/10/20 11:12:37;;;;;;;12.18;6.93;;;13.90;97.80;;;;;;5087596;28;20048;-73
2022/10/20 11:15:23;;;;;;;9.07;7.07;;;13.80;98.40;;;;;;5119320;28;20079;-76
2022/10/20 11:18:29;;;;;;;11.68;7.18;;;13.90;98.10;;;;;;5118905;28;20380;-76
2022/10/20 11:21:32;;;;;;;12.50;6.78;;;14.20;98.30;;;;;;5036088;28;20046;-72
2022/10/20 11:24:10;;;;;;;10.10;7.15;;;14.40;98.30;;;;;;5118410;28;20103;-73
2022/10/20 11:26:43;;;;;;;11.10;6.88;;;14.50;98.40;;;;;;5118788;28;20047;-77
2022/10/20 11:29:15;;;;;;;9.30;6.65;;;14.60;98.00;;;;;;5100353;28;20043;-78
2022/10/20 11:31:57;;;;;;;15.23;7.13;;;14.80;98.50;;;;;;5118497;28;20092;-74
2022/10/20 11:34:26;;;;;;;11.27;6.55;;;14.90;98.40;;;;;;5118243;28;20451;-73
2022/10/20 11:37:12;;;;;;;11.77;7.22;;;15.00;97.90;;;;;;5118109;28;20040;-73
2022/10/20 11:39:48;;;;;;;10.15;6.40;;;15.30;98.20;;;;;;5118449;28;20088;-70
2022/10/20 11:42:34;;;;;;;9.77;6.30;;;15.40;98.10;;;;;;5118424;28;20037;-70
2022/10/20 11:45:03;;;;;;;8.35;6.10;;;15.50;98.00;;;;;;5118093;28;20039;-69
2022/10/20 11:47:37;;;;;;;11.95;6.55;;;15.70;97.90;;;;;;5118300;28;20035;-69
2022/10/20 11:50:09;;;;;;;10.68;6.40;;;15.30;97.60;;;;;;5118289;28;20055;-68
2022/10/20 11:53:04;;;;;;;12.63;7.00;;;15.30;98.00;;;;;;5118253;28;20071;-68
2022/10/20 11:56:02;;;;;;;11.75;6.78;;;15.10;98.20;;;;;;5099800;28;20114;-71
2022/10/20 11:59:01;;;;;;;12.07;7.47;;;15.00;98.00;;;;;;5118145;28;20039;-71
2022/10/20 12:01:31;;;;;;;11.57;6.50;;;14.90;98.30;;;;;;5117028;28;20046;-71
2022/10/20 12:03:56;;;;;;;12.25;7.15;;;14.90;98.30;;;;;;5100085;28;20061;-71
2022/10/20 12:06:51;;;;;;;12.60;7.50;;;14.80;98.40;;;;;;5117963;28;20436;-71
2022/10/20 12:09:29;;;;;;;12.93;6.82;;;14.90;98.40;;;;;;5079022;28;20051;-71
2022/10/20 12:11:57;;;;;;;12.35;7.35;;;14.70;98.30;;;;;;5117945;28;20136;-71
2022/10/20 12:14:40;;;;;;;10.68;7.50;;;14.60;98.40;;;;;;5117511;28;20047;-72
2022/10/20 12:17:27;;;;;;;13.25;7.95;;;14.50;98.70;;;;;;5117682;28;20036;-71
2022/10/20 12:20:19;;;;;;;11.77;7.97;;;14.30;98.80;;;;;;5117379;28;20341;-71
2022/10/20 12:22:46;;;;;;;14.20;8.00;;;14.20;98.60;;;;;;5117106;28;20066;-71
2022/10/20 12:25:23;;;;;;;12.10;7.40;;;14.20;99.30;;;;;;5117695;28;20047;-71
2022/10/20 12:28:21;;;;;;;10.35;7.90;;;14.20;99.10;;;;;;5117281;28;20420;-71
2022/10/20 12:31:05;;;;;;;15.30;8.45;;;14.30;99.20;;;;;;5117148;28;20043;-71
2022/10/20 12:33:39;;;;;;;10.98;8.25;;;14.30;99.10;;;;;;5117524;28;20114;-71
2022/10/20 12:36:28;;;;;;;12.73;8.45;;;14.30;99.20;;;;;;5116099;28;20088;-71
2022/10/20 12:39:10;;;;;;;14.70;8.77;;;14.40;99.30;;;;;;5116761;28;20428;-71
2022/10/20 12:41:55;;;;;;;14.70;8.15;;;14.40;99.40;;;;;;5098698;28;20128;-71
2022/10/20 12:44:21;;;;;;;16.48;8.65;;;14.40;99.30;;;;;;5101724;28;20039;-71
2022/10/20 12:47:04;;;;;;;17.77;9.13;;;14.30;99.30;;;;;;5099263;28;20325;-72
2022/10/20 12:49:37;;;;;;;13.43;8.52;;;14.40;99.30;;;;;;5099114;28;20114;-72
2022/10/20 12:52:06;;;;;;;16.48;9.07;;;14.30;99.40;;;;;;5099226;28;20055;-72
2022/10/20 12:54:38;;;;;;;16.40;9.18;;;14.30;99.50;;;;;;5117216;28;20035;-72
2022/10/20 12:57:41;;;;;;;12.73;8.90;;;14.30;99.50;;;;;;5117162;28;20046;-71
2022/10/20 13:00:19;;;;;;;13.45;8.75;;;14.20;99.70;;;;;;5098929;28;20385;-72